.
WxDataArchive / Data Records for 2007-10-07
2007-10-06 October 2007 2007-10-08

Data Records for Sunday, 07 October 2007

Time	Temp	Chill	HIndex	Humid	Dewpt	 Wind 	HiWind	WindDir	Rain 	Barom 
-----	----	-----	------	-----	-----	------	------	-------	-----	----- 
00:00	68.4	68.4	68.4	94	66.6	0	0	---	0.00	30.003 
00:05	68.3	68.3	68.3	94	66.5	0	0	---	0.00	30.000 
00:10	68.3	68.3	68.3	94	66.5	0	0	---	0.00	30.000 
00:15	68.1	68.1	68.1	94	66.3	0	0	---	0.00	29.999 
00:20	68.1	68.1	68.1	95	66.6	0	0	---	0.00	30.000 
00:25	68.1	68.1	68.1	95	66.6	0	0	---	0.00	29.998 
00:30	67.9	67.9	67.9	95	66.4	0	0	---	0.00	29.997 
00:35	67.8	67.8	67.8	95	66.3	0	0	---	0.00	29.997 
00:40	67.8	67.8	67.8	95	66.3	0	0	---	0.00	29.996 
00:45	67.8	67.8	67.8	95	66.3	0	0	---	0.00	29.998 
00:50	67.6	67.6	67.6	95	66.1	0	0	---	0.00	29.997 
00:55	67.4	67.4	67.4	95	65.9	0	0	---	0.00	29.998 
01:00	67.4	67.4	67.4	95	65.9	0	0	---	0.00	29.999 
01:05	67.3	67.3	67.3	95	65.8	0	0	---	0.00	29.997 
01:10	67.1	67.1	67.1	95	65.6	0	0	---	0.00	29.998 
01:15	67.1	67.1	67.1	95	65.6	0	0	---	0.00	30.001 
01:20	67.1	67.1	67.1	95	65.6	0	0	---	0.00	30.002 
01:25	67.1	67.1	67.1	95	65.6	0	0	---	0.00	30.004 
01:30	66.9	66.9	66.9	95	65.4	0	0	---	0.00	30.004 
01:35	66.9	66.9	66.9	96	65.7	0	0	---	0.00	30.005 
01:40	66.9	66.9	66.9	96	65.7	0	0	---	0.00	30.003 
01:45	66.8	66.8	66.8	96	65.6	0	0	---	0.00	30.003 
01:50	66.6	66.6	66.6	96	65.4	0	0	---	0.00	30.005 
01:55	66.6	66.6	66.6	96	65.4	0	0	---	0.00	30.005 
02:00	66.6	66.6	66.6	96	65.4	0	0	---	0.00	30.004 
02:05	66.4	66.4	66.4	96	65.2	0	0	---	0.00	30.004 
02:10	66.4	66.4	66.4	96	65.2	0	0	---	0.00	30.001 
02:15	66.4	66.4	66.4	96	65.2	0	0	---	0.00	30.001 
02:20	66.4	66.4	66.4	96	65.2	0	0	---	0.00	30.003 
02:25	66.4	66.4	66.4	96	65.2	0	0	---	0.00	30.003 
02:30	66.3	66.3	66.3	96	65.1	0	0	---	0.00	30.001 
02:35	66.3	66.3	66.3	96	65.1	0	0	---	0.00	30.000 
02:40	66.3	66.3	66.3	96	65.1	0	0	---	0.00	29.999 
02:45	66.3	66.3	66.3	96	65.1	0	0	---	0.00	29.998 
02:50	66.1	66.1	66.1	96	64.9	0	0	---	0.00	30.000 
02:55	66.0	66.0	66.0	96	64.8	0	0	---	0.00	29.999 
03:00	66.0	66.0	66.0	96	64.8	0	0	---	0.00	29.997 
03:05	65.8	65.8	65.8	96	64.6	0	0	---	0.00	30.001 
03:10	65.6	65.6	65.6	96	64.4	0	0	---	0.00	30.001 
03:15	65.6	65.6	65.6	96	64.4	0	0	---	0.00	30.001 
03:20	65.6	65.6	65.6	96	64.4	0	0	---	0.00	30.001 
03:25	65.5	65.5	65.5	96	64.3	0	0	---	0.00	30.004 
03:30	65.3	65.3	65.3	96	64.1	0	0	---	0.00	30.005 
03:35	65.2	65.2	65.2	96	64.0	0	0	---	0.00	30.008 
03:40	65.2	65.2	65.2	96	64.0	0	0	---	0.00	30.007 
03:45	65.2	65.2	65.2	96	64.0	0	0	---	0.00	30.006 
03:50	65.2	65.2	65.2	96	64.0	0	0	---	0.00	30.007 
03:55	65.3	65.3	65.3	96	64.1	0	0	---	0.00	30.009 
04:00	65.2	65.2	65.2	96	64.0	0	0	---	0.00	30.007 
04:05	65.2	65.2	65.2	96	64.0	0	0	---	0.00	30.011 
04:10	65.2	65.2	65.2	96	64.0	0	0	---	0.00	30.011 
04:15	65.0	65.0	65.0	96	63.8	0	0	---	0.00	30.012 
04:20	65.0	65.0	65.0	96	63.8	0	0	---	0.00	30.014 
04:25	64.8	64.8	64.8	96	63.6	0	0	---	0.00	30.015 
04:30	64.8	64.8	64.8	96	63.6	0	0	---	0.00	30.016 
04:35	64.8	64.8	64.8	96	63.6	0	0	---	0.00	30.016 
04:40	64.8	64.8	64.8	96	63.6	0	0	---	0.00	30.017 
04:45	64.7	64.7	64.7	96	63.5	0	0	---	0.00	30.018 
04:50	64.5	64.5	64.5	96	63.3	0	0	---	0.00	30.020 
04:55	64.5	64.5	64.5	96	63.3	0	0	---	0.00	30.026 
05:00	64.5	64.5	64.5	96	63.3	0	0	---	0.00	30.027 
05:05	64.5	64.5	64.5	97	63.6	0	0	---	0.00	30.028 
05:10	64.5	64.5	64.5	97	63.6	0	0	---	0.00	30.029 
05:15	64.5	64.5	64.5	97	63.6	0	0	---	0.00	30.032 
05:20	64.5	64.5	64.5	97	63.6	0	0	---	0.00	30.032 
05:25	64.3	64.3	64.3	97	63.4	0	0	---	0.00	30.035 
05:30	64.3	64.3	64.3	97	63.4	0	0	---	0.00	30.035 
05:35	64.3	64.3	64.3	97	63.4	0	0	---	0.00	30.035 
05:40	64.3	64.3	64.3	97	63.4	0	0	---	0.00	30.037 
05:45	64.2	64.2	64.2	97	63.3	0	0	---	0.00	30.039 
05:50	64.2	64.2	64.2	97	63.3	0	0	---	0.00	30.042 
05:55	64.0	64.0	64.0	97	63.1	0	0	---	0.00	30.045 
06:00	64.0	64.0	64.0	97	63.1	0	0	---	0.00	30.047 
06:05	64.2	64.2	64.2	97	63.3	0	0	---	0.00	30.052 
06:10	64.0	64.0	64.0	97	63.1	0	0	---	0.00	30.053 
06:15	64.0	64.0	64.0	97	63.1	0	0	---	0.00	30.053 
06:20	63.9	63.9	63.9	97	63.0	0	0	---	0.00	30.054 
06:25	63.9	63.9	63.9	97	63.0	0	0	---	0.00	30.055 
06:30	63.9	63.9	63.9	97	63.0	0	0	---	0.00	30.054 
06:35	63.9	63.9	63.9	97	63.0	0	0	---	0.00	30.054 
06:40	63.9	63.9	63.9	97	63.0	0	0	---	0.00	30.055 
06:45	63.7	63.7	63.7	97	62.8	0	0	---	0.00	30.056 
06:50	63.7	63.7	63.7	97	62.8	0	0	---	0.00	30.057 
06:55	63.7	63.7	63.7	97	62.8	0	0	---	0.00	30.057 
07:00	63.9	63.9	63.9	97	63.0	0	0	---	0.00	30.058 
07:05	63.9	63.9	63.9	97	63.0	0	0	---	0.00	30.060 
07:10	63.9	63.9	63.9	97	63.0	0	0	---	0.00	30.061 
07:15	63.9	63.9	63.9	97	63.0	0	0	---	0.00	30.061 
07:20	64.0	64.0	64.0	97	63.1	0	0	---	0.00	30.062 
07:25	64.3	64.3	64.3	97	63.4	0	0	---	0.00	30.065 
07:30	64.5	64.5	64.5	97	63.6	0	0	---	0.00	30.066 
07:35	64.7	64.7	64.7	97	63.8	0	0	---	0.00	30.069 
07:40	65.0	65.0	65.0	97	64.1	0	0	---	0.00	30.071 
07:45	65.2	65.2	65.2	97	64.3	0	0	---	0.00	30.072 
07:50	65.6	65.6	65.6	97	64.7	0	0	---	0.00	30.071 
07:55	66.0	66.0	66.0	97	65.1	0	0	---	0.00	30.073 
08:00	66.3	66.3	66.3	97	65.4	0	0	---	0.00	30.075 
08:05	66.8	66.8	66.8	97	65.9	0	0	---	0.00	30.078 
08:10	67.1	67.1	67.1	97	66.2	0	0	---	0.00	30.079 
08:15	67.6	67.6	67.6	97	66.7	0	0	---	0.00	30.079 
08:20	68.1	68.1	68.1	97	67.2	0	0	---	0.00	30.082 
08:25	68.4	68.4	68.4	97	67.5	0	0	---	0.00	30.083 
08:30	68.9	68.9	68.9	97	68.0	0	0	---	0.00	30.083 
08:35	69.3	69.3	69.3	97	68.4	0	0	---	0.00	30.084 
08:40	69.6	69.6	69.6	97	68.7	0	0	---	0.00	30.082 
08:45	70.1	70.1	70.1	97	69.2	0	0	---	0.00	30.081 
08:50	70.6	70.6	70.6	97	69.7	0	0	---	0.00	30.081 
08:55	71.1	71.1	71.1	97	70.2	0	1	248	0.00	30.082 
09:00	71.8	71.8	71.8	96	70.6	0	1	248	0.00	30.081 
09:05	72.7	72.7	72.7	95	71.2	0	1	248	0.00	30.082 
09:10	73.7	73.7	73.7	89	70.2	0	1	248	0.00	30.080 
09:15	74.7	74.7	74.7	84	69.5	0	1	248	0.00	30.081 
09:20	76.0	76.0	77.1	79	69.0	0	1	248	0.00	30.079 
09:25	77.0	77.0	78.7	76	68.8	0	0	---	0.00	30.078 
09:30	78.1	78.1	80.3	73	68.7	0	1	248	0.00	30.076 
09:35	79.0	79.0	81.3	69	67.9	0	1	248	0.00	30.074 
09:40	79.6	79.6	82.0	67	67.7	0	1	248	0.00	30.073 
09:45	79.9	79.9	82.5	67	67.9	0	1	248	0.00	30.070 
09:50	80.3	80.3	82.8	65	67.4	0	1	248	0.00	30.070 
09:55	80.9	80.9	83.7	65	68.0	0	1	248	0.00	30.069 
10:00	81.2	81.2	84.1	65	68.3	0	2	248	0.00	30.070 
10:05	81.6	81.6	84.2	62	67.3	0	2	248	0.00	30.070 
10:10	82.0	82.0	84.8	62	67.7	0	1	248	0.00	30.069 
10:15	82.4	82.4	85.4	62	68.0	0	2	248	0.00	30.070 
10:20	82.8	82.8	86.1	62	68.4	0	2	248	0.00	30.068 
10:25	83.2	83.2	86.5	61	68.3	0	2	248	0.00	30.067 
10:30	83.4	83.4	86.8	61	68.5	0	2	248	0.00	30.068 
10:35	84.0	84.0	87.3	59	68.1	0	2	248	0.00	30.070 
10:40	84.1	84.1	87.4	59	68.2	0	2	248	0.00	30.070 
10:45	84.5	84.5	87.8	58	68.1	0	1	248	0.00	30.069 
10:50	84.5	84.5	87.8	58	68.1	0	2	270	0.00	30.068 
10:55	84.7	84.7	87.9	57	67.7	0	2	270	0.00	30.069 
11:00	84.9	84.9	87.9	56	67.4	0	1	270	0.00	30.069 
11:05	85.3	85.3	88.2	55	67.3	0	1	270	0.00	30.069 
11:10	85.5	85.5	88.6	55	67.5	0	2	270	0.00	30.068 
11:15	85.7	85.7	88.6	54	67.1	0	2	270	0.00	30.067 
11:20	85.7	85.7	89.2	56	68.2	1	3	0	0.00	30.064 
11:25	86.1	86.1	89.6	55	68.0	1	3	292	0.00	30.063 
11:30	86.3	86.3	89.3	53	67.1	1	3	270	0.00	30.061 
11:35	86.5	86.5	89.3	52	66.7	1	2	270	0.00	30.060 
11:40	87.0	87.0	90.4	53	67.8	0	2	248	0.00	30.059 
11:45	86.7	86.7	88.9	50	65.8	0	2	270	0.00	30.058 
11:50	86.7	86.7	89.3	51	66.4	1	3	270	0.00	30.058 
11:55	87.0	87.0	89.7	51	66.6	0	1	248	0.00	30.057 
12:00	87.2	87.2	90.1	51	66.8	1	3	248	0.00	30.054 
12:05	87.4	87.4	90.1	50	66.4	0	2	248	0.00	30.051 
12:10	87.0	87.0	89.4	50	66.1	0	2	248	0.00	30.051 
12:15	86.5	86.5	89.3	52	66.7	0	2	248	0.00	30.047 
12:20	86.7	86.7	88.9	50	65.8	0	1	248	0.00	30.045 
12:25	87.2	87.2	89.7	50	66.3	0	2	135	0.00	30.044 
12:30	87.2	87.2	89.7	50	66.3	1	5	90	0.00	30.043 
12:35	87.4	87.4	90.1	50	66.4	1	3	45	0.00	30.041 
12:40	87.6	87.6	89.7	48	65.4	1	3	112	0.00	30.041 
12:45	87.8	87.8	90.4	49	66.2	1	3	338	0.00	30.038 
12:50	87.8	87.8	90.0	48	65.6	2	6	112	0.00	30.036 
12:55	87.6	87.6	90.0	49	66.0	1	4	112	0.00	30.030 
13:00	88.0	88.0	90.7	49	66.4	1	2	270	0.00	30.029 
13:05	87.8	87.8	90.0	48	65.6	1	3	225	0.00	30.028 
13:10	88.0	88.0	90.3	48	65.8	1	3	225	0.00	30.027 
13:15	88.2	88.2	91.0	49	66.6	0	1	225	0.00	30.025 
13:20	88.4	88.4	91.0	48	66.2	0	2	225	0.00	30.024 
13:25	88.2	88.2	90.3	47	65.4	1	3	270	0.00	30.021 
13:30	88.2	88.2	91.0	49	66.6	0	2	270	0.00	30.016 
13:35	88.4	88.4	90.6	47	65.6	1	4	292	0.00	30.014 
13:40	88.6	88.6	91.3	48	66.4	1	3	68	0.00	30.013 
13:45	88.2	88.2	91.0	49	66.6	1	3	90	0.00	30.012 
13:50	88.2	88.2	90.7	48	66.0	1	2	90	0.00	30.011 
13:55	88.2	88.2	90.0	46	64.8	0	3	90	0.00	30.010 
14:00	88.6	88.6	90.6	46	65.1	1	3	90	0.00	30.008 
14:05	88.6	88.6	90.6	46	65.1	1	3	270	0.00	30.011 
14:10	88.2	88.2	90.0	46	64.8	0	1	270	0.00	30.009 
14:15	88.0	88.0	90.3	48	65.8	0	2	292	0.00	30.007 
14:20	88.2	88.2	90.7	48	66.0	0	3	292	0.00	30.005 
14:25	88.6	88.6	90.6	46	65.1	0	3	270	0.00	30.003 
14:30	88.6	88.6	90.3	45	64.5	0	2	68	0.00	30.000 
14:35	88.0	88.0	89.7	46	64.6	0	1	68	0.00	29.997 
14:40	88.0	88.0	89.7	46	64.6	0	1	68	0.00	29.996 
14:45	88.0	88.0	90.0	47	65.2	0	1	68	0.00	29.994 
14:50	88.6	88.6	91.0	47	65.7	1	3	68	0.00	29.990 
14:55	89.0	89.0	90.9	45	64.9	1	2	0	0.00	29.986 
15:00	89.3	89.3	91.4	45	65.1	1	3	0	0.00	29.987 
15:05	89.3	89.3	91.0	44	64.5	0	2	270	0.00	29.985 
15:10	89.5	89.5	91.3	44	64.7	1	2	202	0.00	29.985 
15:15	89.0	89.0	90.2	43	63.6	1	3	248	0.00	29.987 
15:20	88.6	88.6	90.3	45	64.5	0	1	248	0.00	29.985 
15:25	88.6	88.6	90.3	45	64.5	0	1	248	0.00	29.985 
15:30	88.8	88.8	90.2	44	64.0	1	3	90	0.00	29.983 
15:35	88.8	88.8	90.2	44	64.0	0	2	90	0.00	29.984 
15:40	89.0	89.0	90.9	45	64.9	0	2	90	0.00	29.984 
15:45	89.0	89.0	89.9	42	62.9	1	3	112	0.00	29.983 
15:50	88.8	88.8	89.9	43	63.4	0	1	180	0.00	29.981 
15:55	88.8	88.8	89.9	43	63.4	1	2	248	0.00	29.981 
16:00	88.8	88.8	89.6	42	62.7	1	2	248	0.00	29.981 
16:05	88.8	88.8	90.2	44	64.0	0	2	248	0.00	29.981 
16:10	88.6	88.6	89.6	43	63.2	0	1	270	0.00	29.980 
16:15	88.4	88.4	89.6	44	63.7	0	1	270	0.00	29.981 
16:20	88.4	88.4	89.6	44	63.7	0	2	270	0.00	29.982 
16:25	88.2	88.2	89.3	44	63.5	0	1	270	0.00	29.981 
16:30	87.8	87.8	88.8	44	63.1	0	1	270	0.00	29.981 
16:35	87.6	87.6	88.8	45	63.6	0	2	270	0.00	29.981 
16:40	87.4	87.4	88.8	46	64.0	0	1	270	0.00	29.980 
16:45	87.2	87.2	88.8	47	64.5	0	0	---	0.00	29.978 
16:50	87.0	87.0	88.2	46	63.7	0	1	270	0.00	29.979 
16:55	87.0	87.0	88.2	46	63.7	0	1	270	0.00	29.979 
17:00	87.0	87.0	88.5	47	64.3	0	0	---	0.00	29.980 
17:05	86.7	86.7	88.1	47	64.0	0	0	---	0.00	29.980 
17:10	86.5	86.5	88.1	48	64.4	0	0	---	0.00	29.981 
17:15	86.3	86.3	87.5	47	63.7	0	1	270	0.00	29.981 
17:20	86.3	86.3	87.5	47	63.7	0	1	270	0.00	29.981 
17:25	86.3	86.3	87.8	48	64.3	0	1	270	0.00	29.981 
17:30	85.9	85.9	87.5	49	64.5	0	1	270	0.00	29.981 
17:35	85.5	85.5	87.2	50	64.7	0	0	---	0.00	29.979 
17:40	85.1	85.1	86.9	51	64.9	0	0	---	0.00	29.977 
17:45	84.7	84.7	86.5	52	65.1	0	0	---	0.00	29.980 
17:50	84.3	84.3	86.2	53	65.3	0	0	---	0.00	29.981 
17:55	84.0	84.0	86.3	55	66.1	0	0	---	0.00	29.979 
18:00	83.6	83.6	85.7	55	65.7	0	0	---	0.00	29.979 
18:05	83.0	83.0	85.1	56	65.7	0	0	---	0.00	29.980 
18:10	82.4	82.4	84.6	58	66.1	0	0	---	0.00	29.982 
18:15	81.8	81.8	84.0	59	66.0	0	0	---	0.00	29.984 
18:20	81.2	81.2	83.3	60	66.0	0	0	---	0.00	29.986 
18:25	80.7	80.7	82.9	62	66.4	0	0	---	0.00	29.985 
18:30	80.3	80.3	82.7	64	67.0	0	0	---	0.00	29.983 
18:35	79.8	79.8	82.1	65	67.0	0	0	---	0.00	29.982 
18:40	79.4	79.4	81.6	66	67.0	0	0	---	0.00	29.984 
18:45	78.8	78.8	80.9	67	66.9	0	0	---	0.00	29.985 
18:50	78.5	78.5	80.6	68	67.0	0	0	---	0.00	29.985 
18:55	78.1	78.1	80.1	68	66.7	0	0	---	0.00	29.986 
19:00	77.7	77.7	79.6	69	66.7	0	0	---	0.00	29.986 
19:05	77.2	77.2	79.0	70	66.6	0	0	---	0.00	29.986 
19:10	76.8	76.8	78.5	71	66.7	0	0	---	0.00	29.986 
19:15	76.5	76.5	78.1	72	66.8	0	0	---	0.00	29.987 
19:20	76.3	76.3	77.8	73	67.0	0	0	---	0.00	29.986 
19:25	76.0	76.0	77.5	73	66.7	0	0	---	0.00	29.987 
19:30	75.6	75.6	77.0	74	66.7	0	0	---	0.00	29.988 
19:35	75.4	75.4	76.6	75	66.9	0	0	---	0.00	29.990 
19:40	75.1	75.1	76.3	75	66.6	0	0	---	0.00	29.990 
19:45	74.9	74.9	74.9	76	66.8	0	0	---	0.00	29.989 
19:50	74.6	74.6	74.6	77	66.9	0	0	---	0.00	29.990 
19:55	74.4	74.4	74.4	77	66.7	0	0	---	0.00	29.989 
20:00	74.2	74.2	74.2	78	66.9	0	0	---	0.00	29.990 
20:05	74.0	74.0	74.0	78	66.7	0	0	---	0.00	29.985 
20:10	73.9	73.9	73.9	79	67.0	0	0	---	0.00	29.984 
20:15	73.5	73.5	73.5	79	66.6	0	0	---	0.00	29.986 
20:20	73.3	73.3	73.3	80	66.7	0	0	---	0.00	29.986 
20:25	73.2	73.2	73.2	80	66.6	0	0	---	0.00	29.987 
20:30	73.0	73.0	73.0	81	66.8	0	0	---	0.00	29.988 
20:35	72.7	72.7	72.7	81	66.5	0	0	---	0.00	29.987 
20:40	72.7	72.7	72.7	81	66.5	0	0	---	0.00	29.988 
20:45	72.5	72.5	72.5	82	66.7	0	0	---	0.00	29.987 
20:50	72.3	72.3	72.3	82	66.5	0	0	---	0.00	29.987 
20:55	72.0	72.0	72.0	83	66.5	0	0	---	0.00	29.986 
21:00	71.8	71.8	71.8	83	66.3	0	0	---	0.00	29.986 
21:05	71.6	71.6	71.6	83	66.2	0	0	---	0.00	29.981 
21:10	71.5	71.5	71.5	84	66.4	0	0	---	0.00	29.977 
21:15	71.3	71.3	71.3	85	66.5	0	0	---	0.00	29.978 
21:20	71.1	71.1	71.1	86	66.7	0	0	---	0.00	29.977 
21:25	71.1	71.1	71.1	86	66.7	0	0	---	0.00	29.976 
21:30	70.9	70.9	70.9	87	66.8	0	0	---	0.00	29.977 
21:35	70.8	70.8	70.8	87	66.7	0	0	---	0.00	29.979 
21:40	70.6	70.6	70.6	87	66.5	0	0	---	0.00	29.980 
21:45	70.4	70.4	70.4	88	66.7	0	0	---	0.00	29.981 
21:50	70.4	70.4	70.4	88	66.7	0	0	---	0.00	29.982 
21:55	70.3	70.3	70.3	88	66.6	0	0	---	0.00	29.981 
22:00	70.1	70.1	70.1	89	66.7	0	0	---	0.00	29.980 
22:05	69.9	69.9	69.9	89	66.5	0	0	---	0.00	29.977 
22:10	69.9	69.9	69.9	90	66.8	0	0	---	0.00	29.976 
22:15	69.8	69.8	69.8	90	66.7	0	0	---	0.00	29.978 
22:20	69.8	69.8	69.8	90	66.7	0	0	---	0.00	29.977 
22:25	69.6	69.6	69.6	90	66.5	0	0	---	0.00	29.979 
22:30	69.4	69.4	69.4	90	66.3	0	0	---	0.00	29.980 
22:35	69.4	69.4	69.4	90	66.3	0	0	---	0.00	29.979 
22:40	69.4	69.4	69.4	90	66.3	0	0	---	0.00	29.979 
22:45	69.3	69.3	69.3	91	66.6	0	0	---	0.00	29.978 
22:50	69.1	69.1	69.1	91	66.4	0	0	---	0.00	29.977 
22:55	69.1	69.1	69.1	91	66.4	0	0	---	0.00	29.978 
23:00	68.9	68.9	68.9	91	66.2	0	0	---	0.00	29.978 
23:05	68.8	68.8	68.8	91	66.1	0	0	---	0.00	29.976 
23:10	68.8	68.8	68.8	92	66.4	0	0	---	0.00	29.975 
23:15	68.8	68.8	68.8	92	66.4	0	0	---	0.00	29.974 
23:20	68.6	68.6	68.6	92	66.2	0	0	---	0.00	29.975 
23:25	68.6	68.6	68.6	92	66.2	0	0	---	0.00	29.973 
23:30	68.4	68.4	68.4	91	65.7	0	0	---	0.00	29.972 
23:35	68.3	68.3	68.3	92	65.9	0	0	---	0.00	29.970 
23:40	68.3	68.3	68.3	92	65.9	0	0	---	0.00	29.969 
23:45	68.3	68.3	68.3	92	65.9	0	0	---	0.00	29.969 
23:50	68.1	68.1	68.1	92	65.7	0	0	---	0.00	29.968 
23:55	67.9	67.9	67.9	92	65.5	0	0	---	0.00	29.967 

CoCoRaHS
IN-AL-39
A2 Web Hosting
Creative Commons License
GoDaddy
Look for:

loaded 2017-10-17 22:30:33 • last modified 2010-11-18 10:43:29
Privacy PolicyDisclaimer
• wx.awcolley.com is powered by PmWiki v.2002016 •
• all content (unless otherwise noted) © 2017 A W Colley